sensor_id;sensor_type;location;lat;lon;timestamp;P1;durP1;ratioP1;P2;durP2;ratioP2
11839;SDS011;5979;50.800;4.904;2023-06-26T00:00:26;6.97;;;6.47;;
11839;SDS011;5979;50.800;4.904;2023-06-26T00:02:52;6.30;;;5.90;;
11839;SDS011;5979;50.800;4.904;2023-06-26T00:05:18;6.30;;;5.80;;
11839;SDS011;5979;50.800;4.904;2023-06-26T00:07:44;7.03;;;6.25;;
11839;SDS011;5979;50.800;4.904;2023-06-26T00:10:09;6.15;;;5.70;;
11839;SDS011;5979;50.800;4.904;2023-06-26T00:12:35;6.55;;;6.00;;
11839;SDS011;5979;50.800;4.904;2023-06-26T00:15:01;6.43;;;5.93;;
11839;SDS011;5979;50.800;4.904;2023-06-26T00:17:26;6.72;;;6.13;;
11839;SDS011;5979;50.800;4.904;2023-06-26T00:19:52;6.22;;;5.72;;
11839;SDS011;5979;50.800;4.904;2023-06-26T00:22:21;6.45;;;5.85;;
11839;SDS011;5979;50.800;4.904;2023-06-26T00:24:46;6.05;;;5.63;;
11839;SDS011;5979;50.800;4.904;2023-06-26T00:27:12;6.15;;;5.65;;
11839;SDS011;5979;50.800;4.904;2023-06-26T00:29:38;5.83;;;5.43;;
11839;SDS011;5979;50.800;4.904;2023-06-26T00:32:04;6.25;;;5.75;;
11839;SDS011;5979;50.800;4.904;2023-06-26T00:34:31;6.20;;;5.60;;
11839;SDS011;5979;50.800;4.904;2023-06-26T00:36:56;5.50;;;5.10;;
11839;SDS011;5979;50.800;4.904;2023-06-26T00:39:22;5.90;;;5.50;;
11839;SDS011;5979;50.800;4.904;2023-06-26T00:41:50;5.60;;;5.25;;
11839;SDS011;5979;50.800;4.904;2023-06-26T00:44:18;6.15;;;5.65;;
11839;SDS011;5979;50.800;4.904;2023-06-26T00:46:44;8.23;;;5.65;;
11839;SDS011;5979;50.800;4.904;2023-06-26T00:49:10;6.45;;;5.45;;
11839;SDS011;5979;50.800;4.904;2023-06-26T00:51:36;6.07;;;5.57;;
11839;SDS011;5979;50.800;4.904;2023-06-26T00:54:02;6.60;;;6.10;;
11839;SDS011;5979;50.800;4.904;2023-06-26T00:56:27;6.13;;;5.57;;
11839;SDS011;5979;50.800;4.904;2023-06-26T00:58:53;6.18;;;5.72;;
11839;SDS011;5979;50.800;4.904;2023-06-26T01:01:19;6.40;;;5.72;;
11839;SDS011;5979;50.800;4.904;2023-06-26T01:03:47;7.93;;;4.97;;
11839;SDS011;5979;50.800;4.904;2023-06-26T01:06:18;6.90;;;4.90;;
11839;SDS011;5979;50.800;4.904;2023-06-26T01:08:45;4.78;;;4.45;;
11839;SDS011;5979;50.800;4.904;2023-06-26T01:11:12;5.30;;;4.82;;
11839;SDS011;5979;50.800;4.904;2023-06-26T01:13:39;6.00;;;4.57;;
11839;SDS011;5979;50.800;4.904;2023-06-26T01:16:07;5.15;;;4.55;;
11839;SDS011;5979;50.800;4.904;2023-06-26T01:18:33;4.63;;;4.10;;
11839;SDS011;5979;50.800;4.904;2023-06-26T01:21:02;4.60;;;4.20;;
11839;SDS011;5979;50.800;4.904;2023-06-26T01:26:19;5.95;;;4.45;;
11839;SDS011;5979;50.800;4.904;2023-06-26T01:28:46;7.25;;;4.43;;
11839;SDS011;5979;50.800;4.904;2023-06-26T01:31:13;4.85;;;3.92;;
11839;SDS011;5979;50.800;4.904;2023-06-26T01:33:43;4.60;;;4.20;;
11839;SDS011;5979;50.800;4.904;2023-06-26T01:36:10;4.72;;;4.13;;
11839;SDS011;5979;50.800;4.904;2023-06-26T01:38:36;5.72;;;4.63;;
11839;SDS011;5979;50.800;4.904;2023-06-26T01:41:02;6.43;;;4.22;;
11839;SDS011;5979;50.800;4.904;2023-06-26T01:46:43;8.00;;;4.40;;
11839;SDS011;5979;50.800;4.904;2023-06-26T01:52:06;6.00;;;4.47;;
11839;SDS011;5979;50.800;4.904;2023-06-26T01:57:42;4.00;;;3.70;;
11839;SDS011;5979;50.800;4.904;2023-06-26T02:00:09;4.63;;;4.22;;
11839;SDS011;5979;50.800;4.904;2023-06-26T02:02:36;4.88;;;4.20;;
11839;SDS011;5979;50.800;4.904;2023-06-26T02:05:02;4.45;;;4.05;;
11839;SDS011;5979;50.800;4.904;2023-06-26T02:07:27;4.22;;;3.80;;
11839;SDS011;5979;50.800;4.904;2023-06-26T02:09:53;3.95;;;3.60;;
11839;SDS011;5979;50.800;4.904;2023-06-26T02:12:19;4.38;;;3.97;;
11839;SDS011;5979;50.800;4.904;2023-06-26T02:14:45;3.65;;;3.45;;
11839;SDS011;5979;50.800;4.904;2023-06-26T02:17:10;4.43;;;4.03;;
11839;SDS011;5979;50.800;4.904;2023-06-26T02:19:36;4.45;;;3.50;;
11839;SDS011;5979;50.800;4.904;2023-06-26T02:22:02;4.00;;;3.70;;
11839;SDS011;5979;50.800;4.904;2023-06-26T02:24:30;3.80;;;3.53;;
11839;SDS011;5979;50.800;4.904;2023-06-26T02:26:56;4.35;;;3.95;;
11839;SDS011;5979;50.800;4.904;2023-06-26T02:29:22;3.28;;;2.97;;
11839;SDS011;5979;50.800;4.904;2023-06-26T02:31:48;6.50;;;3.97;;
11839;SDS011;5979;50.800;4.904;2023-06-26T02:34:14;4.07;;;3.72;;
11839;SDS011;5979;50.800;4.904;2023-06-26T02:36:39;4.00;;;3.72;;
11839;SDS011;5979;50.800;4.904;2023-06-26T02:39:05;4.55;;;4.03;;
11839;SDS011;5979;50.800;4.904;2023-06-26T02:41:31;4.07;;;3.72;;
11839;SDS011;5979;50.800;4.904;2023-06-26T02:43:56;5.88;;;3.53;;
11839;SDS011;5979;50.800;4.904;2023-06-26T02:46:22;4.20;;;3.80;;
11839;SDS011;5979;50.800;4.904;2023-06-26T02:48:48;4.63;;;4.18;;
11839;SDS011;5979;50.800;4.904;2023-06-26T02:51:16;4.38;;;3.97;;
11839;SDS011;5979;50.800;4.904;2023-06-26T02:53:42;4.07;;;3.67;;
11839;SDS011;5979;50.800;4.904;2023-06-26T02:56:08;4.03;;;3.72;;
11839;SDS011;5979;50.800;4.904;2023-06-26T02:58:33;5.85;;;3.80;;
11839;SDS011;5979;50.800;4.904;2023-06-26T03:00:59;6.82;;;3.97;;
11839;SDS011;5979;50.800;4.904;2023-06-26T03:03:25;5.03;;;3.97;;
11839;SDS011;5979;50.800;4.904;2023-06-26T03:05:50;4.43;;;3.90;;
11839;SDS011;5979;50.800;4.904;2023-06-26T03:08:16;4.80;;;3.55;;
11839;SDS011;5979;50.800;4.904;2023-06-26T03:10:45;4.40;;;4.00;;
11839;SDS011;5979;50.800;4.904;2023-06-26T03:13:11;3.90;;;3.60;;
11839;SDS011;5979;50.800;4.904;2023-06-26T03:15:36;4.07;;;3.65;;
11839;SDS011;5979;50.800;4.904;2023-06-26T03:18:02;3.75;;;3.38;;
11839;SDS011;5979;50.800;4.904;2023-06-26T03:20:28;4.43;;;4.03;;
11839;SDS011;5979;50.800;4.904;2023-06-26T03:22:53;4.53;;;3.85;;
11839;SDS011;5979;50.800;4.904;2023-06-26T03:25:19;5.15;;;3.75;;
11839;SDS011;5979;50.800;4.904;2023-06-26T03:27:44;4.30;;;3.90;;
11839;SDS011;5979;50.800;4.904;2023-06-26T03:30:10;5.43;;;4.03;;
11839;SDS011;5979;50.800;4.904;2023-06-26T03:32:36;7.72;;;4.70;;
11839;SDS011;5979;50.800;4.904;2023-06-26T03:35:02;4.40;;;3.97;;
11839;SDS011;5979;50.800;4.904;2023-06-26T03:37:28;4.28;;;3.88;;
11839;SDS011;5979;50.800;4.904;2023-06-26T03:39:54;4.07;;;3.78;;
11839;SDS011;5979;50.800;4.904;2023-06-26T03:42:19;4.18;;;3.67;;
11839;SDS011;5979;50.800;4.904;2023-06-26T03:44:45;4.50;;;3.60;;
11839;SDS011;5979;50.800;4.904;2023-06-26T03:47:10;3.85;;;3.42;;
11839;SDS011;5979;50.800;4.904;2023-06-26T03:49:36;6.35;;;4.20;;
11839;SDS011;5979;50.800;4.904;2023-06-26T03:52:02;4.40;;;3.95;;
11839;SDS011;5979;50.800;4.904;2023-06-26T03:54:27;6.88;;;3.83;;
11839;SDS011;5979;50.800;4.904;2023-06-26T03:56:53;4.20;;;3.90;;
11839;SDS011;5979;50.800;4.904;2023-06-26T03:59:22;5.47;;;4.18;;
11839;SDS011;5979;50.800;4.904;2023-06-26T04:01:47;4.38;;;4.00;;
11839;SDS011;5979;50.800;4.904;2023-06-26T04:04:13;4.90;;;4.40;;
11839;SDS011;5979;50.800;4.904;2023-06-26T04:06:38;4.60;;;3.90;;
11839;SDS011;5979;50.800;4.904;2023-06-26T04:09:04;6.88;;;4.38;;
11839;SDS011;5979;50.800;4.904;2023-06-26T04:11:30;5.07;;;3.53;;
11839;SDS011;5979;50.800;4.904;2023-06-26T04:13:58;6.82;;;4.55;;
11839;SDS011;5979;50.800;4.904;2023-06-26T04:16:25;6.38;;;4.25;;
11839;SDS011;5979;50.800;4.904;2023-06-26T04:18:51;6.13;;;4.20;;
11839;SDS011;5979;50.800;4.904;2023-06-26T04:21:17;5.00;;;4.35;;
11839;SDS011;5979;50.800;4.904;2023-06-26T04:23:43;5.13;;;4.22;;
11839;SDS011;5979;50.800;4.904;2023-06-26T04:26:08;7.55;;;3.97;;
11839;SDS011;5979;50.800;4.904;2023-06-26T04:28:34;5.28;;;4.22;;
11839;SDS011;5979;50.800;4.904;2023-06-26T04:31:01;7.75;;;4.38;;
11839;SDS011;5979;50.800;4.904;2023-06-26T04:33:28;4.90;;;3.90;;
11839;SDS011;5979;50.800;4.904;2023-06-26T04:35:54;7.60;;;4.22;;
11839;SDS011;5979;50.800;4.904;2023-06-26T04:38:20;4.28;;;3.75;;
11839;SDS011;5979;50.800;4.904;2023-06-26T04:40:46;6.43;;;4.07;;
11839;SDS011;5979;50.800;4.904;2023-06-26T04:43:12;7.80;;;3.80;;
11839;SDS011;5979;50.800;4.904;2023-06-26T04:45:38;7.00;;;3.92;;
11839;SDS011;5979;50.800;4.904;2023-06-26T04:48:04;6.75;;;4.03;;
11839;SDS011;5979;50.800;4.904;2023-06-26T04:50:30;7.03;;;3.85;;
11839;SDS011;5979;50.800;4.904;2023-06-26T04:52:56;8.02;;;4.28;;
11839;SDS011;5979;50.800;4.904;2023-06-26T04:55:23;7.28;;;3.55;;
11839;SDS011;5979;50.800;4.904;2023-06-26T04:57:49;5.72;;;3.75;;
11839;SDS011;5979;50.800;4.904;2023-06-26T05:00:15;6.00;;;3.88;;
11839;SDS011;5979;50.800;4.904;2023-06-26T05:02:41;5.35;;;3.28;;
11839;SDS011;5979;50.800;4.904;2023-06-26T05:05:07;6.85;;;3.72;;
11839;SDS011;5979;50.800;4.904;2023-06-26T05:07:33;6.45;;;3.55;;
11839;SDS011;5979;50.800;4.904;2023-06-26T05:09:59;7.40;;;3.90;;
11839;SDS011;5979;50.800;4.904;2023-06-26T05:12:25;7.50;;;3.28;;
11839;SDS011;5979;50.800;4.904;2023-06-26T05:14:50;8.68;;;3.78;;
11839;SDS011;5979;50.800;4.904;2023-06-26T05:17:16;9.23;;;3.80;;
11839;SDS011;5979;50.800;4.904;2023-06-26T05:19:42;10.00;;;3.67;;
11839;SDS011;5979;50.800;4.904;2023-06-26T05:22:07;7.30;;;3.00;;
11839;SDS011;5979;50.800;4.904;2023-06-26T05:24:34;9.10;;;3.70;;
11839;SDS011;5979;50.800;4.904;2023-06-26T05:27:03;6.63;;;3.80;;
11839;SDS011;5979;50.800;4.904;2023-06-26T05:29:32;7.18;;;3.67;;
11839;SDS011;5979;50.800;4.904;2023-06-26T05:31:59;5.68;;;3.25;;
11839;SDS011;5979;50.800;4.904;2023-06-26T05:34:25;6.43;;;3.50;;
11839;SDS011;5979;50.800;4.904;2023-06-26T05:36:57;6.55;;;3.25;;
11839;SDS011;5979;50.800;4.904;2023-06-26T05:39:24;6.18;;;3.72;;
11839;SDS011;5979;50.800;4.904;2023-06-26T05:41:50;7.28;;;3.28;;
11839;SDS011;5979;50.800;4.904;2023-06-26T05:44:16;4.68;;;3.15;;
11839;SDS011;5979;50.800;4.904;2023-06-26T05:46:42;8.73;;;3.30;;
11839;SDS011;5979;50.800;4.904;2023-06-26T05:49:08;7.50;;;3.50;;
11839;SDS011;5979;50.800;4.904;2023-06-26T05:51:34;7.00;;;3.72;;
11839;SDS011;5979;50.800;4.904;2023-06-26T05:54:00;7.55;;;3.08;;
11839;SDS011;5979;50.800;4.904;2023-06-26T05:56:26;5.47;;;2.83;;
11839;SDS011;5979;50.800;4.904;2023-06-26T05:58:51;6.97;;;3.28;;
11839;SDS011;5979;50.800;4.904;2023-06-26T06:01:18;6.03;;;3.08;;
11839;SDS011;5979;50.800;4.904;2023-06-26T06:03:44;5.40;;;3.17;;
11839;SDS011;5979;50.800;4.904;2023-06-26T06:06:10;8.93;;;3.60;;
11839;SDS011;5979;50.800;4.904;2023-06-26T06:08:37;4.75;;;3.05;;
11839;SDS011;5979;50.800;4.904;2023-06-26T06:11:02;8.27;;;3.13;;
11839;SDS011;5979;50.800;4.904;2023-06-26T06:13:28;6.93;;;3.10;;
11839;SDS011;5979;50.800;4.904;2023-06-26T06:15:54;8.75;;;2.95;;
11839;SDS011;5979;50.800;4.904;2023-06-26T06:18:20;6.22;;;3.33;;
11839;SDS011;5979;50.800;4.904;2023-06-26T06:20:46;6.57;;;3.00;;
11839;SDS011;5979;50.800;4.904;2023-06-26T06:23:12;5.50;;;3.20;;
11839;SDS011;5979;50.800;4.904;2023-06-26T06:25:37;4.97;;;3.08;;
11839;SDS011;5979;50.800;4.904;2023-06-26T06:28:04;5.20;;;2.80;;
11839;SDS011;5979;50.800;4.904;2023-06-26T06:30:30;11.82;;;3.08;;
11839;SDS011;5979;50.800;4.904;2023-06-26T06:32:56;9.25;;;2.85;;
11839;SDS011;5979;50.800;4.904;2023-06-26T06:35:22;7.10;;;2.92;;
11839;SDS011;5979;50.800;4.904;2023-06-26T06:37:48;6.15;;;3.13;;
11839;SDS011;5979;50.800;4.904;2023-06-26T06:40:15;5.25;;;2.65;;
11839;SDS011;5979;50.800;4.904;2023-06-26T06:42:41;10.80;;;3.08;;
11839;SDS011;5979;50.800;4.904;2023-06-26T06:45:06;9.10;;;2.95;;
11839;SDS011;5979;50.800;4.904;2023-06-26T06:47:33;5.30;;;2.75;;
11839;SDS011;5979;50.800;4.904;2023-06-26T06:49:59;5.45;;;2.90;;
11839;SDS011;5979;50.800;4.904;2023-06-26T06:52:32;8.68;;;3.35;;
11839;SDS011;5979;50.800;4.904;2023-06-26T06:55:05;3.55;;;2.10;;
11839;SDS011;5979;50.800;4.904;2023-06-26T06:57:33;5.72;;;2.92;;
11839;SDS011;5979;50.800;4.904;2023-06-26T07:00:06;6.20;;;2.47;;
11839;SDS011;5979;50.800;4.904;2023-06-26T07:02:36;5.82;;;2.78;;
11839;SDS011;5979;50.800;4.904;2023-06-26T07:05:03;4.53;;;2.50;;
11839;SDS011;5979;50.800;4.904;2023-06-26T07:07:30;6.07;;;2.72;;
11839;SDS011;5979;50.800;4.904;2023-06-26T07:10:00;4.30;;;2.60;;
11839;SDS011;5979;50.800;4.904;2023-06-26T07:12:28;4.38;;;2.60;;
11839;SDS011;5979;50.800;4.904;2023-06-26T07:14:54;4.32;;;2.60;;
11839;SDS011;5979;50.800;4.904;2023-06-26T07:17:21;8.95;;;2.47;;
11839;SDS011;5979;50.800;4.904;2023-06-26T07:19:47;5.20;;;2.60;;
11839;SDS011;5979;50.800;4.904;2023-06-26T07:22:13;7.38;;;2.67;;
11839;SDS011;5979;50.800;4.904;2023-06-26T07:24:39;5.88;;;2.33;;
11839;SDS011;5979;50.800;4.904;2023-06-26T07:27:04;5.45;;;2.33;;
11839;SDS011;5979;50.800;4.904;2023-06-26T07:29:30;7.53;;;2.78;;
11839;SDS011;5979;50.800;4.904;2023-06-26T07:31:56;6.00;;;2.80;;
11839;SDS011;5979;50.800;4.904;2023-06-26T07:34:22;6.50;;;2.55;;
11839;SDS011;5979;50.800;4.904;2023-06-26T07:36:47;5.38;;;2.65;;
11839;SDS011;5979;50.800;4.904;2023-06-26T07:39:13;4.20;;;2.85;;
11839;SDS011;5979;50.800;4.904;2023-06-26T07:41:38;5.05;;;2.25;;
11839;SDS011;5979;50.800;4.904;2023-06-26T07:44:04;6.50;;;2.40;;
11839;SDS011;5979;50.800;4.904;2023-06-26T07:46:30;3.70;;;2.72;;
11839;SDS011;5979;50.800;4.904;2023-06-26T07:48:55;3.63;;;2.53;;
11839;SDS011;5979;50.800;4.904;2023-06-26T07:51:21;6.43;;;2.80;;
11839;SDS011;5979;50.800;4.904;2023-06-26T07:53:47;4.90;;;2.40;;
11839;SDS011;5979;50.800;4.904;2023-06-26T07:56:12;3.42;;;2.10;;
11839;SDS011;5979;50.800;4.904;2023-06-26T07:58:38;3.33;;;2.80;;
11839;SDS011;5979;50.800;4.904;2023-06-26T08:01:04;3.13;;;2.03;;
11839;SDS011;5979;50.800;4.904;2023-06-26T08:03:29;3.53;;;2.40;;
11839;SDS011;5979;50.800;4.904;2023-06-26T08:05:55;6.78;;;2.33;;
11839;SDS011;5979;50.800;4.904;2023-06-26T08:08:20;5.53;;;2.10;;
11839;SDS011;5979;50.800;4.904;2023-06-26T08:10:46;3.03;;;1.98;;
11839;SDS011;5979;50.800;4.904;2023-06-26T08:13:12;3.30;;;2.15;;
11839;SDS011;5979;50.800;4.904;2023-06-26T08:15:37;3.92;;;2.10;;
11839;SDS011;5979;50.800;4.904;2023-06-26T08:18:04;4.25;;;2.20;;
11839;SDS011;5979;50.800;4.904;2023-06-26T08:20:30;4.30;;;2.15;;
11839;SDS011;5979;50.800;4.904;2023-06-26T08:22:55;4.47;;;1.88;;
11839;SDS011;5979;50.800;4.904;2023-06-26T08:25:21;3.90;;;2.33;;
11839;SDS011;5979;50.800;4.904;2023-06-26T08:27:47;3.97;;;2.08;;
11839;SDS011;5979;50.800;4.904;2023-06-26T08:30:13;2.42;;;2.20;;
11839;SDS011;5979;50.800;4.904;2023-06-26T08:32:39;3.17;;;2.22;;
11839;SDS011;5979;50.800;4.904;2023-06-26T08:35:05;2.40;;;1.70;;
11839;SDS011;5979;50.800;4.904;2023-06-26T08:37:32;2.75;;;2.00;;
11839;SDS011;5979;50.800;4.904;2023-06-26T08:40:00;3.78;;;1.77;;
11839;SDS011;5979;50.800;4.904;2023-06-26T08:42:26;2.17;;;1.73;;
11839;SDS011;5979;50.800;4.904;2023-06-26T08:44:52;4.07;;;1.77;;
11839;SDS011;5979;50.800;4.904;2023-06-26T08:47:17;3.00;;;1.83;;
11839;SDS011;5979;50.800;4.904;2023-06-26T08:52:24;4.63;;;1.80;;
11839;SDS011;5979;50.800;4.904;2023-06-26T08:54:58;3.67;;;1.92;;
11839;SDS011;5979;50.800;4.904;2023-06-26T08:57:24;3.97;;;2.03;;
11839;SDS011;5979;50.800;4.904;2023-06-26T08:59:52;3.45;;;1.60;;
11839;SDS011;5979;50.800;4.904;2023-06-26T09:02:18;4.95;;;2.00;;
11839;SDS011;5979;50.800;4.904;2023-06-26T09:04:46;4.68;;;1.98;;
11839;SDS011;5979;50.800;4.904;2023-06-26T09:07:13;4.72;;;2.10;;
11839;SDS011;5979;50.800;4.904;2023-06-26T09:09:39;2.25;;;1.63;;
11839;SDS011;5979;50.800;4.904;2023-06-26T09:12:04;2.90;;;1.90;;
11839;SDS011;5979;50.800;4.904;2023-06-26T09:14:30;3.55;;;1.85;;
11839;SDS011;5979;50.800;4.904;2023-06-26T09:16:57;4.53;;;1.70;;
11839;SDS011;5979;50.800;4.904;2023-06-26T09:19:22;4.13;;;1.88;;
11839;SDS011;5979;50.800;4.904;2023-06-26T09:21:49;2.53;;;1.60;;
11839;SDS011;5979;50.800;4.904;2023-06-26T09:24:16;3.40;;;1.55;;
11839;SDS011;5979;50.800;4.904;2023-06-26T09:26:42;3.17;;;1.77;;
11839;SDS011;5979;50.800;4.904;2023-06-26T09:29:08;1.98;;;1.67;;
11839;SDS011;5979;50.800;4.904;2023-06-26T09:31:36;7.78;;;2.05;;
11839;SDS011;5979;50.800;4.904;2023-06-26T09:34:02;4.55;;;1.60;;
11839;SDS011;5979;50.800;4.904;2023-06-26T09:36:29;2.40;;;1.65;;
11839;SDS011;5979;50.800;4.904;2023-06-26T09:39:01;2.75;;;1.67;;
11839;SDS011;5979;50.800;4.904;2023-06-26T09:41:29;2.42;;;1.67;;
11839;SDS011;5979;50.800;4.904;2023-06-26T09:43:57;3.67;;;1.85;;
11839;SDS011;5979;50.800;4.904;2023-06-26T09:46:27;3.55;;;1.75;;
11839;SDS011;5979;50.800;4.904;2023-06-26T09:48:58;5.05;;;1.92;;
11839;SDS011;5979;50.800;4.904;2023-06-26T09:51:29;1.52;;;1.38;;
11839;SDS011;5979;50.800;4.904;2023-06-26T09:53:56;3.65;;;1.70;;
11839;SDS011;5979;50.800;4.904;2023-06-26T09:56:22;1.65;;;1.50;;
11839;SDS011;5979;50.800;4.904;2023-06-26T09:58:48;3.35;;;1.80;;
11839;SDS011;5979;50.800;4.904;2023-06-26T10:01:14;2.35;;;1.58;;
11839;SDS011;5979;50.800;4.904;2023-06-26T10:03:40;2.70;;;1.92;;
11839;SDS011;5979;50.800;4.904;2023-06-26T10:06:06;2.20;;;1.60;;
11839;SDS011;5979;50.800;4.904;2023-06-26T10:08:34;1.80;;;1.50;;
11839;SDS011;5979;50.800;4.904;2023-06-26T10:11:01;3.40;;;1.50;;
11839;SDS011;5979;50.800;4.904;2023-06-26T10:13:31;3.65;;;1.60;;
11839;SDS011;5979;50.800;4.904;2023-06-26T10:16:04;2.35;;;1.45;;
11839;SDS011;5979;50.800;4.904;2023-06-26T10:18:32;2.00;;;1.60;;
11839;SDS011;5979;50.800;4.904;2023-06-26T10:21:01;4.47;;;1.50;;
11839;SDS011;5979;50.800;4.904;2023-06-26T10:23:28;3.65;;;1.85;;
11839;SDS011;5979;50.800;4.904;2023-06-26T10:25:55;2.55;;;1.45;;
11839;SDS011;5979;50.800;4.904;2023-06-26T10:28:25;2.60;;;1.80;;
11839;SDS011;5979;50.800;4.904;2023-06-26T10:30:53;1.38;;;1.17;;
11839;SDS011;5979;50.800;4.904;2023-06-26T10:33:20;1.73;;;1.50;;
11839;SDS011;5979;50.800;4.904;2023-06-26T10:35:47;1.92;;;1.30;;
11839;SDS011;5979;50.800;4.904;2023-06-26T10:38:12;5.40;;;1.60;;
11839;SDS011;5979;50.800;4.904;2023-06-26T10:40:42;1.73;;;1.63;;
11839;SDS011;5979;50.800;4.904;2023-06-26T10:43:15;2.80;;;1.75;;
11839;SDS011;5979;50.800;4.904;2023-06-26T10:45:45;4.60;;;2.00;;
11839;SDS011;5979;50.800;4.904;2023-06-26T10:48:15;3.22;;;1.50;;
11839;SDS011;5979;50.800;4.904;2023-06-26T10:50:40;4.13;;;1.75;;
11839;SDS011;5979;50.800;4.904;2023-06-26T11:01:16;3.17;;;1.60;;
11839;SDS011;5979;50.800;4.904;2023-06-26T11:03:44;1.88;;;1.40;;
11839;SDS011;5979;50.800;4.904;2023-06-26T11:06:13;1.73;;;1.55;;
11839;SDS011;5979;50.800;4.904;2023-06-26T11:11:13;3.90;;;2.10;;
11839;SDS011;5979;50.800;4.904;2023-06-26T11:13:39;2.95;;;1.70;;
11839;SDS011;5979;50.800;4.904;2023-06-26T11:16:06;3.65;;;1.90;;
11839;SDS011;5979;50.800;4.904;2023-06-26T11:18:32;2.95;;;1.77;;
11839;SDS011;5979;50.800;4.904;2023-06-26T11:23:49;3.15;;;1.63;;
11839;SDS011;5979;50.800;4.904;2023-06-26T11:26:19;3.72;;;1.88;;
11839;SDS011;5979;50.800;4.904;2023-06-26T11:28:52;2.35;;;1.65;;
11839;SDS011;5979;50.800;4.904;2023-06-26T11:33:50;2.90;;;1.50;;
11839;SDS011;5979;50.800;4.904;2023-06-26T11:36:17;2.28;;;1.50;;
11839;SDS011;5979;50.800;4.904;2023-06-26T11:38:43;2.03;;;1.48;;
11839;SDS011;5979;50.800;4.904;2023-06-26T11:41:09;4.47;;;1.75;;
11839;SDS011;5979;50.800;4.904;2023-06-26T11:43:34;2.38;;;1.58;;
11839;SDS011;5979;50.800;4.904;2023-06-26T11:46:00;2.20;;;1.75;;
11839;SDS011;5979;50.800;4.904;2023-06-26T11:48:26;1.85;;;1.75;;
11839;SDS011;5979;50.800;4.904;2023-06-26T11:50:51;3.28;;;2.00;;
11839;SDS011;5979;50.800;4.904;2023-06-26T11:53:17;3.50;;;1.92;;
11839;SDS011;5979;50.800;4.904;2023-06-26T11:55:43;4.53;;;1.77;;
11839;SDS011;5979;50.800;4.904;2023-06-26T11:58:08;4.72;;;1.65;;
11839;SDS011;5979;50.800;4.904;2023-06-26T12:00:34;1.70;;;1.33;;
11839;SDS011;5979;50.800;4.904;2023-06-26T12:03:00;2.88;;;2.10;;
11839;SDS011;5979;50.800;4.904;2023-06-26T12:05:28;6.45;;;1.67;;
11839;SDS011;5979;50.800;4.904;2023-06-26T12:07:54;3.15;;;2.00;;
11839;SDS011;5979;50.800;4.904;2023-06-26T12:10:21;1.92;;;1.80;;
11839;SDS011;5979;50.800;4.904;2023-06-26T12:12:47;2.85;;;1.77;;
11839;SDS011;5979;50.800;4.904;2023-06-26T12:15:14;4.18;;;1.75;;
11839;SDS011;5979;50.800;4.904;2023-06-26T12:17:41;4.80;;;2.00;;
11839;SDS011;5979;50.800;4.904;2023-06-26T12:20:17;1.98;;;1.75;;
11839;SDS011;5979;50.800;4.904;2023-06-26T12:22:48;5.05;;;2.00;;
11839;SDS011;5979;50.800;4.904;2023-06-26T12:25:14;4.45;;;2.00;;
11839;SDS011;5979;50.800;4.904;2023-06-26T12:27:40;3.45;;;2.17;;
11839;SDS011;5979;50.800;4.904;2023-06-26T12:30:06;3.47;;;2.08;;
11839;SDS011;5979;50.800;4.904;2023-06-26T12:32:32;2.92;;;1.75;;
11839;SDS011;5979;50.800;4.904;2023-06-26T12:34:59;1.88;;;1.60;;
11839;SDS011;5979;50.800;4.904;2023-06-26T12:37:26;2.92;;;2.20;;
11839;SDS011;5979;50.800;4.904;2023-06-26T12:39:53;2.20;;;2.03;;
11839;SDS011;5979;50.800;4.904;2023-06-26T12:42:20;3.65;;;2.30;;
11839;SDS011;5979;50.800;4.904;2023-06-26T12:44:57;2.65;;;2.15;;
11839;SDS011;5979;50.800;4.904;2023-06-26T12:47:24;4.93;;;2.28;;
11839;SDS011;5979;50.800;4.904;2023-06-26T12:49:52;2.40;;;2.08;;
11839;SDS011;5979;50.800;4.904;2023-06-26T12:52:19;2.22;;;2.00;;
11839;SDS011;5979;50.800;4.904;2023-06-26T12:54:45;6.45;;;2.10;;
11839;SDS011;5979;50.800;4.904;2023-06-26T12:57:12;5.93;;;2.00;;
11839;SDS011;5979;50.800;4.904;2023-06-26T12:59:41;3.08;;;2.10;;
11839;SDS011;5979;50.800;4.904;2023-06-26T13:02:07;5.85;;;2.17;;
11839;SDS011;5979;50.800;4.904;2023-06-26T13:04:34;3.70;;;1.92;;
11839;SDS011;5979;50.800;4.904;2023-06-26T13:07:00;2.72;;;2.00;;
11839;SDS011;5979;50.800;4.904;2023-06-26T13:09:26;3.92;;;1.95;;
11839;SDS011;5979;50.800;4.904;2023-06-26T13:11:58;3.78;;;2.05;;
11839;SDS011;5979;50.800;4.904;2023-06-26T13:14:24;2.90;;;1.95;;
11839;SDS011;5979;50.800;4.904;2023-06-26T13:16:49;3.88;;;1.73;;
11839;SDS011;5979;50.800;4.904;2023-06-26T13:19:15;2.58;;;1.80;;
11839;SDS011;5979;50.800;4.904;2023-06-26T13:21:41;3.67;;;2.00;;
11839;SDS011;5979;50.800;4.904;2023-06-26T13:24:07;2.70;;;2.00;;
11839;SDS011;5979;50.800;4.904;2023-06-26T13:26:32;3.42;;;2.20;;
11839;SDS011;5979;50.800;4.904;2023-06-26T13:28:58;1.95;;;1.65;;
11839;SDS011;5979;50.800;4.904;2023-06-26T13:31:24;4.32;;;1.90;;
11839;SDS011;5979;50.800;4.904;2023-06-26T13:33:50;3.58;;;2.08;;
11839;SDS011;5979;50.800;4.904;2023-06-26T13:36:17;3.65;;;1.67;;
11839;SDS011;5979;50.800;4.904;2023-06-26T13:38:43;2.00;;;1.80;;
11839;SDS011;5979;50.800;4.904;2023-06-26T13:41:10;3.03;;;1.85;;
11839;SDS011;5979;50.800;4.904;2023-06-26T13:43:36;1.70;;;1.60;;
11839;SDS011;5979;50.800;4.904;2023-06-26T13:46:02;2.80;;;1.50;;
11839;SDS011;5979;50.800;4.904;2023-06-26T13:48:28;4.10;;;1.60;;
11839;SDS011;5979;50.800;4.904;2023-06-26T13:50:54;2.58;;;1.67;;
11839;SDS011;5979;50.800;4.904;2023-06-26T13:53:20;6.05;;;2.10;;
11839;SDS011;5979;50.800;4.904;2023-06-26T13:55:46;2.38;;;1.60;;
11839;SDS011;5979;50.800;4.904;2023-06-26T13:58:11;1.73;;;1.60;;
11839;SDS011;5979;50.800;4.904;2023-06-26T14:00:38;2.25;;;1.45;;
11839;SDS011;5979;50.800;4.904;2023-06-26T14:03:04;4.63;;;1.85;;
11839;SDS011;5979;50.800;4.904;2023-06-26T14:05:35;3.22;;;1.98;;
11839;SDS011;5979;50.800;4.904;2023-06-26T14:08:04;3.25;;;1.85;;
11839;SDS011;5979;50.800;4.904;2023-06-26T14:10:31;4.68;;;1.70;;
11839;SDS011;5979;50.800;4.904;2023-06-26T14:13:01;2.17;;;1.70;;
11839;SDS011;5979;50.800;4.904;2023-06-26T14:15:28;2.58;;;1.83;;
11839;SDS011;5979;50.800;4.904;2023-06-26T14:17:54;3.63;;;2.10;;
11839;SDS011;5979;50.800;4.904;2023-06-26T14:20:20;1.77;;;1.63;;
11839;SDS011;5979;50.800;4.904;2023-06-26T14:22:47;1.98;;;1.85;;
11839;SDS011;5979;50.800;4.904;2023-06-26T14:25:13;3.15;;;1.90;;
11839;SDS011;5979;50.800;4.904;2023-06-26T14:27:39;3.03;;;1.73;;
11839;SDS011;5979;50.800;4.904;2023-06-26T14:30:05;2.13;;;1.92;;
11839;SDS011;5979;50.800;4.904;2023-06-26T14:32:34;2.10;;;1.40;;
11839;SDS011;5979;50.800;4.904;2023-06-26T14:35:01;2.63;;;1.65;;
11839;SDS011;5979;50.800;4.904;2023-06-26T14:37:28;5.20;;;1.90;;
11839;SDS011;5979;50.800;4.904;2023-06-26T14:39:55;2.92;;;2.10;;
11839;SDS011;5979;50.800;4.904;2023-06-26T14:42:21;4.38;;;1.67;;
11839;SDS011;5979;50.800;4.904;2023-06-26T14:44:47;2.50;;;2.03;;
11839;SDS011;5979;50.800;4.904;2023-06-26T14:47:15;1.67;;;1.58;;
11839;SDS011;5979;50.800;4.904;2023-06-26T14:49:40;2.30;;;1.73;;
11839;SDS011;5979;50.800;4.904;2023-06-26T14:52:06;3.03;;;1.90;;
11839;SDS011;5979;50.800;4.904;2023-06-26T14:54:32;2.67;;;2.00;;
11839;SDS011;5979;50.800;4.904;2023-06-26T14:56:58;5.55;;;2.25;;
11839;SDS011;5979;50.800;4.904;2023-06-26T14:59:25;2.10;;;1.75;;
11839;SDS011;5979;50.800;4.904;2023-06-26T15:01:50;1.90;;;1.80;;
11839;SDS011;5979;50.800;4.904;2023-06-26T15:04:16;3.75;;;1.83;;
11839;SDS011;5979;50.800;4.904;2023-06-26T15:06:42;3.08;;;2.20;;
11839;SDS011;5979;50.800;4.904;2023-06-26T15:09:07;2.80;;;1.83;;
11839;SDS011;5979;50.800;4.904;2023-06-26T15:11:34;4.20;;;1.70;;
11839;SDS011;5979;50.800;4.904;2023-06-26T15:14:01;4.60;;;2.03;;
11839;SDS011;5979;50.800;4.904;2023-06-26T15:16:26;4.45;;;1.85;;
11839;SDS011;5979;50.800;4.904;2023-06-26T15:18:52;3.80;;;2.10;;
11839;SDS011;5979;50.800;4.904;2023-06-26T15:21:18;5.35;;;1.98;;
11839;SDS011;5979;50.800;4.904;2023-06-26T15:23:44;2.38;;;1.70;;
11839;SDS011;5979;50.800;4.904;2023-06-26T15:26:11;1.92;;;1.80;;